createdAt,value
2022-10-04T00:00:23.851Z,98.70
2022-10-04T00:01:23.877Z,98.80
2022-10-04T00:02:23.973Z,98.70
2022-10-04T00:03:23.800Z,98.85
2022-10-04T00:04:23.799Z,98.75
2022-10-04T00:05:24.213Z,98.75
2022-10-04T00:06:23.769Z,98.85
2022-10-04T00:07:23.856Z,98.75
2022-10-04T00:08:24.260Z,98.75
2022-10-04T00:09:24.249Z,98.75
2022-10-04T00:10:23.728Z,98.75
2022-10-04T00:11:23.709Z,98.75
2022-10-04T00:12:23.695Z,98.85
2022-10-04T00:13:23.677Z,98.85
2022-10-04T00:14:24.109Z,98.85
2022-10-04T00:15:23.667Z,98.85
2022-10-04T00:16:23.687Z,98.85
2022-10-04T00:17:23.715Z,98.85
2022-10-04T00:18:23.645Z,98.85
2022-10-04T00:19:24.037Z,98.85
2022-10-04T00:20:23.596Z,98.85
2022-10-04T00:21:23.578Z,98.79
2022-10-04T00:22:23.587Z,98.90
2022-10-04T00:23:23.574Z,98.79
2022-10-04T00:24:23.634Z,98.90
2022-10-04T00:25:23.966Z,98.79
2022-10-04T00:26:23.534Z,98.79
2022-10-04T00:27:23.520Z,98.79
2022-10-04T00:28:23.562Z,98.79
2022-10-04T00:29:23.840Z,98.84
2022-10-04T00:30:23.493Z,98.84
2022-10-04T00:31:23.591Z,98.84
2022-10-04T00:32:23.484Z,98.84
2022-10-04T00:33:23.502Z,98.84
2022-10-04T00:34:26.889Z,98.84
2022-10-04T00:35:24.999Z,98.84
2022-10-04T00:36:23.421Z,98.94
2022-10-04T00:37:23.382Z,98.94
2022-10-04T00:38:23.376Z,98.94
2022-10-04T00:39:23.860Z,98.94
2022-10-04T00:40:23.359Z,98.94
2022-10-04T00:41:23.350Z,98.94
2022-10-04T00:42:23.349Z,98.94
2022-10-04T00:43:23.809Z,98.94
2022-10-04T00:44:23.649Z,98.94
2022-10-04T00:45:23.428Z,98.94
2022-10-04T00:46:23.355Z,98.94
2022-10-04T00:47:23.249Z,98.94
2022-10-04T00:48:26.611Z,98.94
2022-10-04T00:49:24.648Z,98.94
2022-10-04T00:50:23.208Z,98.94
2022-10-04T00:51:23.207Z,98.94
2022-10-04T00:52:23.187Z,98.94
2022-10-04T00:53:23.189Z,98.94
2022-10-04T00:54:23.166Z,98.94
2022-10-04T00:55:23.586Z,98.94
2022-10-04T00:56:23.135Z,98.94
2022-10-04T00:57:23.116Z,98.94
2022-10-04T00:58:23.118Z,98.94
2022-10-04T00:59:23.484Z,98.94
2022-10-04T01:00:23.091Z,98.94
2022-10-04T01:01:23.129Z,98.94
2022-10-04T01:02:23.125Z,98.94
2022-10-04T01:03:23.052Z,98.94
2022-10-04T01:04:23.462Z,98.94
2022-10-04T01:05:23.033Z,98.99
2022-10-04T01:06:23.004Z,98.88
2022-10-04T01:07:23.002Z,98.88
2022-10-04T01:08:22.982Z,98.88
2022-10-04T01:09:23.400Z,98.88
2022-10-04T01:10:22.961Z,98.99
2022-10-04T01:11:22.954Z,98.99
2022-10-04T01:12:22.932Z,98.99
2022-10-04T01:13:22.923Z,98.99
2022-10-04T01:14:23.316Z,98.99
2022-10-04T01:15:22.903Z,98.99
2022-10-04T01:16:22.930Z,98.99
2022-10-04T01:17:22.889Z,99.09
2022-10-04T01:18:22.880Z,99.09
2022-10-04T01:19:23.198Z,99.09
2022-10-04T01:20:22.830Z,99.09
2022-10-04T01:21:22.827Z,99.09
2022-10-04T01:22:22.802Z,98.99
2022-10-04T01:23:22.804Z,98.99
2022-10-04T01:24:23.210Z,99.09
2022-10-04T01:25:22.798Z,99.09
2022-10-04T01:26:22.765Z,99.09
2022-10-04T01:27:22.749Z,99.09
2022-10-04T01:28:22.841Z,99.09
2022-10-04T01:29:23.145Z,99.09
2022-10-04T01:30:22.720Z,99.09
2022-10-04T01:31:22.810Z,99.09
2022-10-04T01:32:22.680Z,99.09
2022-10-04T01:33:22.670Z,99.09
2022-10-04T01:34:23.019Z,99.09
2022-10-04T01:35:22.651Z,99.09
2022-10-04T01:36:22.626Z,99.09
2022-10-04T01:37:22.637Z,99.14
2022-10-04T01:38:22.606Z,99.14
2022-10-04T01:39:23.024Z,99.14
2022-10-04T01:40:22.587Z,99.14
2022-10-04T01:41:22.564Z,99.24
2022-10-04T01:42:22.556Z,99.14
2022-10-04T01:43:22.545Z,99.14
2022-10-04T01:44:22.526Z,99.14
2022-10-04T01:45:22.953Z,99.14
2022-10-04T01:46:22.572Z,99.14
2022-10-04T01:47:22.504Z,99.24
2022-10-04T01:48:22.502Z,99.24
2022-10-04T01:49:22.839Z,99.24
2022-10-04T01:50:22.544Z,99.24
2022-10-04T01:51:22.444Z,99.24
2022-10-04T01:52:22.423Z,99.24
2022-10-04T01:53:22.402Z,99.24
2022-10-04T01:54:22.771Z,99.24
2022-10-04T01:55:22.384Z,99.24
2022-10-04T01:56:22.375Z,99.24
2022-10-04T01:57:22.362Z,99.24
2022-10-04T01:58:22.352Z,99.24
2022-10-04T01:59:22.759Z,99.24
2022-10-04T02:00:22.330Z,99.24
2022-10-04T02:01:22.330Z,99.24
2022-10-04T02:02:22.310Z,99.24
2022-10-04T02:03:22.302Z,99.24
2022-10-04T02:04:22.878Z,99.24
2022-10-04T02:05:22.268Z,99.29
2022-10-04T02:06:22.250Z,99.29
2022-10-04T02:07:22.241Z,99.18
2022-10-04T02:08:22.235Z,99.29
2022-10-04T02:09:22.527Z,99.29
2022-10-04T02:10:22.197Z,99.29
2022-10-04T02:11:22.190Z,99.23
2022-10-04T02:12:22.186Z,99.23
2022-10-04T02:13:22.165Z,99.33
2022-10-04T02:14:22.166Z,99.23
2022-10-04T02:15:22.585Z,99.33
2022-10-04T02:16:22.171Z,99.33
2022-10-04T02:17:22.105Z,99.33
2022-10-04T02:18:22.094Z,99.33
2022-10-04T02:19:22.472Z,99.38
2022-10-04T02:20:22.079Z,99.38
2022-10-04T02:21:22.053Z,99.27
2022-10-04T02:22:22.057Z,99.38
2022-10-04T02:23:22.052Z,99.38
2022-10-04T02:24:22.352Z,99.38
2022-10-04T02:25:22.013Z,99.38
2022-10-04T02:26:21.992Z,99.48
2022-10-04T02:27:21.986Z,99.38
2022-10-04T02:28:22.040Z,99.38
2022-10-04T02:29:22.380Z,99.38
2022-10-04T02:30:21.944Z,99.38
2022-10-04T02:31:22.017Z,99.38
2022-10-04T02:32:21.971Z,99.38
2022-10-04T02:33:21.911Z,99.38
2022-10-04T02:34:21.908Z,99.48
2022-10-04T02:35:22.313Z,99.48
2022-10-04T02:36:21.860Z,99.48
2022-10-04T02:37:21.848Z,99.48
2022-10-04T02:38:21.856Z,99.38
2022-10-04T02:39:22.199Z,99.48
2022-10-04T02:40:21.809Z,99.38
2022-10-04T02:41:21.798Z,99.48
2022-10-04T02:42:21.814Z,99.48
2022-10-04T02:43:21.780Z,99.48
2022-10-04T02:44:22.200Z,99.48
2022-10-04T02:45:21.762Z,99.48
2022-10-04T02:46:21.795Z,99.48
2022-10-04T02:47:21.736Z,99.43
2022-10-04T02:48:21.716Z,99.54
2022-10-04T02:49:22.137Z,99.54
2022-10-04T02:50:21.698Z,99.54
2022-10-04T02:51:21.687Z,99.54
2022-10-04T02:52:21.669Z,99.43
2022-10-04T02:53:21.644Z,99.43
2022-10-04T02:54:21.634Z,99.43
2022-10-04T02:55:22.016Z,99.54
2022-10-04T02:56:21.614Z,99.43
2022-10-04T02:57:21.602Z,99.54
2022-10-04T02:58:21.593Z,99.49
2022-10-04T02:59:22.013Z,99.49
2022-10-04T03:00:21.564Z,99.49
2022-10-04T03:01:21.612Z,99.60
2022-10-04T03:02:29.003Z,99.49
2022-10-04T03:03:22.539Z,99.49
2022-10-04T03:04:21.943Z,99.49
2022-10-04T03:05:21.511Z,99.44
2022-10-04T03:06:21.481Z,99.44
2022-10-04T03:07:21.472Z,99.44
2022-10-04T03:08:21.457Z,99.44
2022-10-04T03:09:25.056Z,99.34
2022-10-04T03:10:22.437Z,99.39
2022-10-04T03:11:21.418Z,99.49
2022-10-04T03:12:21.412Z,99.49
2022-10-04T03:13:21.405Z,99.39
2022-10-04T03:14:21.740Z,99.49
2022-10-04T03:15:21.379Z,99.49
2022-10-04T03:16:21.464Z,99.39
2022-10-04T03:17:21.397Z,99.49
2022-10-04T03:18:21.336Z,99.49
2022-10-04T03:19:21.797Z,99.49
2022-10-04T03:20:21.424Z,99.49
2022-10-04T03:21:21.307Z,99.49
2022-10-04T03:22:21.283Z,99.49
2022-10-04T03:23:21.287Z,99.49
2022-10-04T03:24:21.253Z,99.49
2022-10-04T03:25:21.685Z,99.49
2022-10-04T03:26:21.235Z,99.49
2022-10-04T03:27:21.226Z,99.49
2022-10-04T03:28:21.275Z,99.49
2022-10-04T03:29:21.595Z,99.49
2022-10-04T03:30:21.185Z,99.49
2022-10-04T03:31:21.182Z,99.49
2022-10-04T03:32:21.162Z,99.49
2022-10-04T03:33:21.145Z,99.49
2022-10-04T03:34:21.514Z,99.60
2022-10-04T03:35:21.123Z,99.49
2022-10-04T03:36:21.111Z,99.49
2022-10-04T03:37:21.100Z,99.54
2022-10-04T03:38:21.089Z,99.64
2022-10-04T03:39:21.402Z,99.60
2022-10-04T03:40:21.055Z,99.60
2022-10-04T03:41:21.050Z,99.60
2022-10-04T03:42:21.030Z,99.60
2022-10-04T03:43:21.021Z,99.60
2022-10-04T03:44:20.998Z,99.49
2022-10-04T03:45:21.328Z,99.49
2022-10-04T03:46:20.978Z,99.60
2022-10-04T03:47:20.965Z,99.60
2022-10-04T03:48:20.956Z,99.60
2022-10-04T03:49:21.387Z,99.60
2022-10-04T03:50:20.931Z,99.60
2022-10-04T03:51:20.919Z,99.60
2022-10-04T03:52:20.907Z,99.70
2022-10-04T03:53:20.897Z,99.60
2022-10-04T03:54:20.876Z,99.70
2022-10-04T03:55:21.298Z,99.60
2022-10-04T03:56:20.847Z,99.55
2022-10-04T03:57:20.863Z,99.65
2022-10-04T03:58:20.828Z,99.65
2022-10-04T03:59:21.243Z,99.65
2022-10-04T04:00:21.514Z,99.65
2022-10-04T04:01:20.922Z,99.65
2022-10-04T04:02:20.842Z,99.65
2022-10-04T04:03:20.764Z,99.55
2022-10-04T04:04:20.781Z,99.65
2022-10-04T04:05:20.736Z,99.55
2022-10-04T04:06:20.714Z,99.55
2022-10-04T04:07:20.723Z,99.55
2022-10-04T04:08:20.692Z,99.55
2022-10-04T04:09:21.043Z,99.55
2022-10-04T04:10:20.672Z,99.65
2022-10-04T04:11:20.706Z,99.55
2022-10-04T04:12:20.641Z,99.65
2022-10-04T04:13:20.630Z,99.65
2022-10-04T04:14:20.632Z,99.55
2022-10-04T04:15:21.042Z,99.65
2022-10-04T04:16:20.637Z,99.65
2022-10-04T04:17:20.581Z,99.65
2022-10-04T04:18:21.310Z,99.55
2022-10-04T04:19:21.002Z,99.65
2022-10-04T04:20:20.562Z,99.55
2022-10-04T04:21:20.560Z,99.55
2022-10-04T04:22:20.519Z,99.55
2022-10-04T04:23:20.543Z,99.60
2022-10-04T04:24:20.917Z,99.60
2022-10-04T04:25:20.494Z,99.60
2022-10-04T04:26:20.467Z,99.60
2022-10-04T04:27:20.468Z,99.60
2022-10-04T04:28:20.501Z,99.60
2022-10-04T04:29:20.765Z,99.60
2022-10-04T04:30:20.426Z,99.60
2022-10-04T04:31:20.493Z,99.60
2022-10-04T04:32:20.405Z,99.60
2022-10-04T04:33:21.255Z,99.60
2022-10-04T04:34:20.715Z,99.60
2022-10-04T04:35:20.384Z,99.60
2022-10-04T04:36:20.375Z,99.60
2022-10-04T04:37:20.337Z,99.60
2022-10-04T04:38:20.311Z,99.64
2022-10-04T04:39:20.436Z,99.74
2022-10-04T04:40:20.292Z,99.64
2022-10-04T04:41:20.285Z,99.64
2022-10-04T04:42:20.268Z,99.64
2022-10-04T04:43:20.266Z,99.74
2022-10-04T04:44:20.689Z,99.74
2022-10-04T04:45:20.263Z,99.74
2022-10-04T04:46:27.591Z,99.74
2022-10-04T04:47:21.212Z,99.74
2022-10-04T04:48:20.192Z,99.74
2022-10-04T04:49:20.453Z,99.64
2022-10-04T04:50:20.173Z,99.64
2022-10-04T04:51:20.162Z,99.64
2022-10-04T04:52:20.148Z,99.74
2022-10-04T04:53:20.130Z,99.74
2022-10-04T04:54:20.141Z,99.74
2022-10-04T04:55:20.428Z,99.74
2022-10-04T04:56:20.095Z,99.64
2022-10-04T04:57:20.102Z,99.64
2022-10-04T04:58:20.091Z,99.74
2022-10-04T04:59:20.405Z,99.74
2022-10-04T05:00:20.038Z,99.74
2022-10-04T05:01:20.156Z,99.64
2022-10-04T05:02:20.064Z,99.74
2022-10-04T05:03:20.018Z,99.74
2022-10-04T05:04:20.010Z,99.74
2022-10-04T05:05:19.997Z,99.74
2022-10-04T05:06:19.991Z,99.74
2022-10-04T05:07:20.005Z,99.74
2022-10-04T05:08:19.945Z,99.74
2022-10-04T05:09:20.228Z,99.69
2022-10-04T05:10:19.939Z,99.69
2022-10-04T05:11:19.902Z,99.79
2022-10-04T05:12:19.891Z,99.79
2022-10-04T05:13:19.873Z,99.79
2022-10-04T05:14:19.861Z,99.79
2022-10-04T05:15:20.171Z,99.79
2022-10-04T05:16:19.926Z,99.69
2022-10-04T05:17:19.835Z,99.69
2022-10-04T05:18:19.813Z,99.73
2022-10-04T05:19:20.255Z,99.73
2022-10-04T05:20:19.796Z,99.73
2022-10-04T05:21:19.788Z,99.84
2022-10-04T05:22:19.767Z,99.84
2022-10-04T05:23:19.766Z,99.84
2022-10-04T05:24:20.182Z,99.84
2022-10-04T05:25:19.720Z,99.84
2022-10-04T05:26:19.736Z,99.84
2022-10-04T05:27:19.691Z,99.84
2022-10-04T05:28:19.752Z,99.84
2022-10-04T05:29:20.007Z,99.94
2022-10-04T05:30:19.661Z,99.94
2022-10-04T05:31:19.657Z,99.94
2022-10-04T05:32:19.657Z,99.90
2022-10-04T05:33:19.621Z,99.90
2022-10-04T05:34:20.052Z,99.90
2022-10-04T05:35:19.594Z,99.90
2022-10-04T05:36:19.577Z,99.79
2022-10-04T05:37:19.578Z,99.79
2022-10-04T05:38:19.557Z,99.79
2022-10-04T05:39:19.895Z,99.79
2022-10-04T05:40:19.558Z,99.79
2022-10-04T05:41:19.517Z,99.79
2022-10-04T05:42:19.546Z,99.79
2022-10-04T05:43:19.485Z,99.79
2022-10-04T05:44:19.475Z,99.69
2022-10-04T05:45:19.839Z,99.69
2022-10-04T05:46:19.510Z,99.69
2022-10-04T05:47:19.444Z,99.69
2022-10-04T05:48:19.423Z,99.79
2022-10-04T05:49:19.843Z,99.79
2022-10-04T05:50:19.405Z,99.79
2022-10-04T05:51:19.403Z,99.79
2022-10-04T05:52:19.382Z,99.69
2022-10-04T05:53:19.360Z,99.79
2022-10-04T05:54:19.360Z,99.79
2022-10-04T05:55:19.718Z,99.79
2022-10-04T05:56:19.324Z,99.90
2022-10-04T05:57:19.320Z,99.90
2022-10-04T05:58:19.341Z,99.85
2022-10-04T05:59:19.690Z,99.74
2022-10-04T06:00:19.281Z,99.85
2022-10-04T06:01:19.343Z,99.85
2022-10-04T06:02:19.312Z,99.85
2022-10-04T06:03:19.257Z,99.80
2022-10-04T06:04:19.619Z,99.80
2022-10-04T06:05:19.295Z,99.80
2022-10-04T06:06:19.197Z,99.80
2022-10-04T06:07:19.223Z,99.70
2022-10-04T06:08:19.181Z,99.70
2022-10-04T06:09:19.517Z,99.65
2022-10-04T06:10:19.169Z,99.65
2022-10-04T06:11:19.167Z,99.65
2022-10-04T06:12:19.127Z,99.65
2022-10-04T06:13:19.109Z,99.55
2022-10-04T06:14:19.104Z,99.65
2022-10-04T06:15:19.528Z,99.55
2022-10-04T06:16:19.109Z,99.44
2022-10-04T06:17:19.071Z,99.44
2022-10-04T06:18:19.056Z,99.55
2022-10-04T06:19:19.371Z,99.65
2022-10-04T06:20:19.033Z,99.65
2022-10-04T06:21:19.007Z,99.61
2022-10-04T06:22:18.993Z,99.61
2022-10-04T06:23:18.982Z,99.51
2022-10-04T06:24:20.632Z,99.40
2022-10-04T06:25:18.962Z,99.51
2022-10-04T06:26:18.962Z,99.40
2022-10-04T06:27:18.942Z,99.40
2022-10-04T06:28:19.003Z,99.51
2022-10-04T06:29:18.952Z,99.46
2022-10-04T06:30:18.902Z,99.25
2022-10-04T06:31:19.078Z,99.35
2022-10-04T06:32:18.889Z,99.15
2022-10-04T06:33:18.860Z,99.15
2022-10-04T06:34:18.849Z,99.15
2022-10-04T06:35:19.272Z,98.94
2022-10-04T06:36:18.818Z,98.94
2022-10-04T06:37:18.808Z,98.94
2022-10-04T06:38:18.790Z,98.94
2022-10-04T06:39:19.212Z,98.84
2022-10-04T06:40:18.760Z,98.74
2022-10-04T06:41:18.752Z,98.63
2022-10-04T06:42:18.740Z,98.32
2022-10-04T06:43:18.728Z,98.32
2022-10-04T06:44:18.717Z,98.22
2022-10-04T06:45:18.727Z,98.06
2022-10-04T06:46:18.808Z,98.01
2022-10-04T06:47:18.674Z,98.01
2022-10-04T06:48:18.668Z,97.91
2022-10-04T06:49:19.089Z,97.81
2022-10-04T06:50:18.641Z,97.71
2022-10-04T06:51:18.639Z,97.81
2022-10-04T06:52:18.612Z,97.71
2022-10-04T06:53:18.597Z,97.60
2022-10-04T06:54:18.580Z,97.60
2022-10-04T06:55:19.002Z,97.55
2022-10-04T06:56:18.553Z,97.55
2022-10-04T06:57:18.546Z,97.55
2022-10-04T06:58:18.536Z,97.45
2022-10-04T06:59:18.856Z,97.34
2022-10-04T07:00:18.507Z,97.30
2022-10-04T07:01:18.538Z,97.30
2022-10-04T07:02:18.547Z,97.20
2022-10-04T07:03:18.475Z,97.16
2022-10-04T07:04:18.874Z,96.95
2022-10-04T07:05:18.449Z,96.84
2022-10-04T07:06:18.424Z,96.53
2022-10-04T07:07:18.411Z,96.44
2022-10-04T07:08:18.413Z,96.33
2022-10-04T07:09:18.694Z,96.18
2022-10-04T07:10:18.376Z,96.18
2022-10-04T07:11:18.353Z,96.08
2022-10-04T07:12:18.342Z,96.08
2022-10-04T07:13:18.341Z,96.03
2022-10-04T07:14:18.633Z,95.93
2022-10-04T07:15:18.308Z,95.73
2022-10-04T07:16:18.327Z,95.42
2022-10-04T07:17:18.281Z,95.21
2022-10-04T07:18:18.275Z,94.90
2022-10-04T07:19:18.571Z,95.06
2022-10-04T07:20:18.297Z,94.96
2022-10-04T07:21:18.239Z,94.96
2022-10-04T07:22:18.228Z,94.76
2022-10-04T07:23:18.211Z,94.55
2022-10-04T07:24:18.589Z,94.65
2022-10-04T07:25:18.181Z,94.65
2022-10-04T07:26:18.168Z,94.76
2022-10-04T07:27:18.167Z,94.76
2022-10-04T07:28:18.161Z,94.76
2022-10-04T07:29:18.449Z,94.76
2022-10-04T07:30:18.125Z,94.55
2022-10-04T07:31:18.154Z,94.65
2022-10-04T07:32:18.113Z,94.45
2022-10-04T07:33:18.077Z,94.24
2022-10-04T07:34:18.077Z,94.24
2022-10-04T07:35:18.366Z,94.03
2022-10-04T07:36:21.766Z,94.03
2022-10-04T07:37:18.043Z,94.03
2022-10-04T07:38:18.020Z,94.13
2022-10-04T07:39:18.334Z,94.20
2022-10-04T07:40:17.996Z,94.20
2022-10-04T07:41:17.978Z,94.09
2022-10-04T07:42:17.964Z,94.30
2022-10-04T07:43:17.962Z,94.20
2022-10-04T07:44:17.945Z,94.40
2022-10-04T07:45:18.388Z,94.09
2022-10-04T07:46:18.073Z,93.88
2022-10-04T07:47:17.904Z,93.83
2022-10-04T07:48:17.909Z,94.03
2022-10-04T07:49:18.194Z,94.03
2022-10-04T07:50:17.862Z,94.13
2022-10-04T07:51:17.854Z,94.24
2022-10-04T07:52:17.839Z,94.34
2022-10-04T07:53:17.836Z,94.34
2022-10-04T07:54:18.228Z,94.55
2022-10-04T07:55:17.798Z,94.51
2022-10-04T07:56:17.795Z,94.20
2022-10-04T07:57:17.783Z,94.09
2022-10-04T07:58:17.770Z,93.99
2022-10-04T07:59:18.090Z,93.95
2022-10-04T08:00:17.739Z,93.84
2022-10-04T08:01:17.733Z,93.49
2022-10-04T08:02:17.786Z,93.29
2022-10-04T08:03:17.757Z,92.77
2022-10-04T08:04:17.702Z,92.42
2022-10-04T08:05:18.102Z,92.38
2022-10-04T08:06:17.667Z,92.27
2022-10-04T08:07:17.649Z,92.33
2022-10-04T08:08:17.638Z,91.78
2022-10-04T08:09:17.659Z,91.47
2022-10-04T08:10:17.610Z,91.33
2022-10-04T08:11:17.597Z,91.08
2022-10-04T08:12:17.598Z,90.56
2022-10-04T08:13:17.566Z,90.52
2022-10-04T08:14:17.586Z,90.62
2022-10-04T08:15:17.576Z,90.37
2022-10-04T08:16:17.595Z,90.28
2022-10-04T08:17:17.530Z,89.76
2022-10-04T08:18:17.506Z,89.56
2022-10-04T08:19:17.943Z,89.92
2022-10-04T08:20:17.494Z,90.03
2022-10-04T08:21:18.063Z,90.03
2022-10-04T08:22:17.794Z,89.58
2022-10-04T08:23:17.464Z,89.58
2022-10-04T08:24:17.434Z,89.74
2022-10-04T08:25:17.854Z,89.03
2022-10-04T08:26:17.423Z,89.03
2022-10-04T08:27:17.404Z,88.71
2022-10-04T08:28:17.419Z,88.92
2022-10-04T08:29:17.800Z,89.09
2022-10-04T08:30:17.364Z,88.47
2022-10-04T08:31:17.431Z,88.47
2022-10-04T08:32:17.335Z,88.64
2022-10-04T08:33:17.325Z,88.39
2022-10-04T08:34:17.755Z,88.18
2022-10-04T08:35:17.292Z,88.29
2022-10-04T08:36:17.286Z,87.67
2022-10-04T08:37:17.264Z,87.12
2022-10-04T08:38:17.262Z,87.43
2022-10-04T08:39:17.728Z,87.73
2022-10-04T08:40:17.231Z,87.32
2022-10-04T08:41:17.212Z,87.06
2022-10-04T08:42:17.191Z,87.47
2022-10-04T08:43:17.186Z,87.57
2022-10-04T08:44:17.221Z,87.57
2022-10-04T08:45:17.159Z,87.82
2022-10-04T08:46:17.220Z,88.12
2022-10-04T08:47:21.243Z,88.43
2022-10-04T08:48:17.119Z,88.26
2022-10-04T08:49:17.537Z,88.37
2022-10-04T08:50:17.091Z,88.98
2022-10-04T08:51:17.079Z,89.04
2022-10-04T08:52:17.065Z,88.74
2022-10-04T08:53:17.053Z,88.43
2022-10-04T08:54:17.087Z,88.43
2022-10-04T08:55:17.466Z,88.53
2022-10-04T08:56:17.010Z,88.53
2022-10-04T08:57:16.988Z,88.18
2022-10-04T08:58:16.990Z,87.88
2022-10-04T08:59:17.287Z,88.04
2022-10-04T09:00:17.040Z,87.63
2022-10-04T09:01:16.962Z,87.26
2022-10-04T09:02:17.018Z,87.16
2022-10-04T09:03:16.918Z,87.47
2022-10-04T09:04:17.131Z,87.88
2022-10-04T09:05:16.889Z,87.37
2022-10-04T09:06:16.872Z,87.67
2022-10-04T09:07:16.849Z,87.47
2022-10-04T09:08:16.848Z,87.30
2022-10-04T09:09:17.278Z,87.41
2022-10-04T09:10:16.837Z,88.17
2022-10-04T09:11:16.811Z,88.37
2022-10-04T09:12:16.796Z,88.37
2022-10-04T09:13:16.788Z,87.76
2022-10-04T09:14:16.772Z,88.35
2022-10-04T09:15:17.167Z,89.03
2022-10-04T09:16:16.848Z,89.23
2022-10-04T09:17:21.836Z,89.23
2022-10-04T09:18:17.716Z,89.29
2022-10-04T09:19:17.126Z,88.84
2022-10-04T09:20:37.370Z,88.43
2022-10-04T09:21:17.685Z,87.88
2022-10-04T09:22:17.116Z,87.77
2022-10-04T09:23:16.645Z,87.06
2022-10-04T09:24:17.036Z,86.65
2022-10-04T09:25:16.629Z,87.26
2022-10-04T09:26:16.614Z,87.43
2022-10-04T09:27:31.480Z,87.23
2022-10-04T09:28:17.727Z,86.47
2022-10-04T09:29:16.905Z,86.26
2022-10-04T09:30:16.568Z,86.33
2022-10-04T09:31:16.588Z,85.92
2022-10-04T09:32:16.546Z,85.92
2022-10-04T09:33:16.548Z,85.82
2022-10-04T09:34:16.933Z,85.47
2022-10-04T09:35:16.527Z,84.34
2022-10-04T09:36:16.487Z,84.86
2022-10-04T09:37:16.475Z,85.02
2022-10-04T09:38:16.456Z,84.61
2022-10-04T09:39:29.350Z,84.20
2022-10-04T09:40:17.453Z,84.31
2022-10-04T09:41:16.420Z,84.00
2022-10-04T09:42:16.392Z,84.47
2022-10-04T09:43:16.382Z,84.17
2022-10-04T09:44:16.701Z,83.76
2022-10-04T09:45:16.359Z,83.45
2022-10-04T09:46:16.382Z,84.33
2022-10-04T09:47:16.329Z,83.51
2022-10-04T09:48:23.334Z,83.68
2022-10-04T09:49:24.751Z,82.35
2022-10-04T09:50:16.293Z,82.12
2022-10-04T09:51:23.274Z,81.30
2022-10-04T09:52:23.262Z,81.74
2022-10-04T09:53:16.249Z,82.60
2022-10-04T09:54:16.693Z,83.18
2022-10-04T09:55:16.222Z,83.90
2022-10-04T09:56:23.227Z,84.17
2022-10-04T09:57:23.203Z,84.27
2022-10-04T09:58:23.192Z,84.53
2022-10-04T09:59:16.411Z,84.33
2022-10-04T10:00:16.152Z,84.23
2022-10-04T10:01:16.197Z,84.29
2022-10-04T10:02:16.227Z,83.98
2022-10-04T10:03:23.411Z,83.64
2022-10-04T10:04:16.101Z,83.20
2022-10-04T10:05:16.115Z,81.87
2022-10-04T10:06:16.076Z,81.87
2022-10-04T10:07:16.057Z,81.33
2022-10-04T10:08:16.075Z,81.63
2022-10-04T10:09:16.340Z,81.63
2022-10-04T10:10:16.026Z,80.21
2022-10-04T10:11:16.012Z,80.11
2022-10-04T10:12:16.008Z,80.41
2022-10-04T10:13:15.993Z,79.50
2022-10-04T10:14:15.979Z,80.62
2022-10-04T10:15:16.604Z,80.88
2022-10-04T10:16:15.990Z,80.72
2022-10-04T10:17:15.941Z,80.92
2022-10-04T10:18:15.959Z,80.98
2022-10-04T10:19:16.292Z,80.88
2022-10-04T10:20:15.900Z,80.33
2022-10-04T10:21:15.895Z,78.71
2022-10-04T10:22:15.872Z,78.81
2022-10-04T10:23:15.860Z,79.59
2022-10-04T10:24:16.280Z,78.98
2022-10-04T10:25:15.847Z,78.67
2022-10-04T10:26:15.838Z,78.17
2022-10-04T10:27:15.816Z,78.37
2022-10-04T10:28:15.836Z,78.23
2022-10-04T10:29:16.139Z,78.27
2022-10-04T10:30:15.772Z,78.27
2022-10-04T10:31:15.809Z,78.74
2022-10-04T10:32:15.749Z,78.94
2022-10-04T10:33:15.731Z,78.44
2022-10-04T10:34:16.088Z,78.60
2022-10-04T10:35:15.703Z,77.99
2022-10-04T10:36:15.702Z,77.28
2022-10-04T10:37:15.688Z,77.18
2022-10-04T10:38:15.665Z,77.86
2022-10-04T10:39:15.965Z,77.34
2022-10-04T10:40:15.638Z,78.16
2022-10-04T10:41:15.631Z,77.55
2022-10-04T10:42:15.676Z,76.33
2022-10-04T10:43:15.615Z,74.21
2022-10-04T10:44:16.035Z,75.35
2022-10-04T10:45:15.577Z,75.35
2022-10-04T10:46:15.659Z,75.79
2022-10-04T10:47:15.554Z,77.01
2022-10-04T10:48:15.529Z,76.20
2022-10-04T10:49:20.096Z,75.90
2022-10-04T10:50:16.516Z,75.49
2022-10-04T10:51:15.495Z,76.71
2022-10-04T10:52:15.483Z,76.40
2022-10-04T10:53:15.479Z,76.61
2022-10-04T10:54:15.903Z,76.47
2022-10-04T10:55:15.448Z,75.96
2022-10-04T10:56:15.437Z,76.23
2022-10-04T10:57:15.427Z,75.93
2022-10-04T10:58:15.407Z,74.91
2022-10-04T10:59:15.732Z,75.12
2022-10-04T11:00:15.383Z,74.88
2022-10-04T11:01:15.410Z,74.07
2022-10-04T11:02:15.550Z,72.89
2022-10-04T11:03:19.309Z,72.99
2022-10-04T11:04:17.460Z,72.99
2022-10-04T11:05:15.402Z,74.41
2022-10-04T11:06:15.302Z,75.01
2022-10-04T11:07:15.303Z,74.21
2022-10-04T11:08:15.328Z,74.00
2022-10-04T11:09:15.703Z,74.71
2022-10-04T11:10:15.286Z,75.52
2022-10-04T11:11:15.253Z,75.28
2022-10-04T11:12:15.245Z,75.69
2022-10-04T11:13:15.254Z,74.27
2022-10-04T11:14:15.641Z,74.88
2022-10-04T11:15:15.183Z,76.09
2022-10-04T11:16:15.281Z,75.59
2022-10-04T11:17:15.222Z,75.59
2022-10-04T11:18:15.152Z,76.80
2022-10-04T11:19:15.492Z,75.18
2022-10-04T11:20:15.142Z,75.38
2022-10-04T11:21:15.153Z,75.28
2022-10-04T11:22:15.109Z,75.38
2022-10-04T11:23:15.104Z,75.28
2022-10-04T11:24:15.087Z,75.85
2022-10-04T11:25:15.463Z,75.42
2022-10-04T11:26:15.061Z,75.42
2022-10-04T11:27:15.044Z,75.11
2022-10-04T11:28:15.091Z,74.77
2022-10-04T11:29:15.048Z,74.07
2022-10-04T11:30:15.050Z,74.60
2022-10-04T11:31:15.036Z,74.81
2022-10-04T11:32:14.980Z,75.52
2022-10-04T11:33:14.980Z,77.44
2022-10-04T11:34:16.904Z,76.50
2022-10-04T11:35:15.377Z,76.50
2022-10-04T11:36:14.920Z,75.14
2022-10-04T11:37:14.919Z,75.55
2022-10-04T11:38:14.891Z,75.45
2022-10-04T11:39:15.199Z,76.15
2022-10-04T11:40:14.865Z,76.15
2022-10-04T11:41:14.929Z,76.86
2022-10-04T11:42:14.927Z,75.95
2022-10-04T11:43:14.958Z,75.55
2022-10-04T11:44:14.823Z,75.51
2022-10-04T11:45:15.238Z,75.71
2022-10-04T11:46:14.851Z,75.27
2022-10-04T11:47:14.833Z,74.66
2022-10-04T11:48:15.316Z,75.17
2022-10-04T11:49:15.075Z,74.53
2022-10-04T11:50:14.737Z,74.63
2022-10-04T11:51:14.790Z,74.84
2022-10-04T11:52:14.742Z,74.63
2022-10-04T11:53:14.717Z,74.33
2022-10-04T11:54:14.698Z,74.63
2022-10-04T11:55:14.715Z,75.04
2022-10-04T11:56:14.695Z,74.22
2022-10-04T11:57:14.656Z,74.84
2022-10-04T11:58:14.644Z,74.93
2022-10-04T11:59:15.104Z,75.74
2022-10-04T12:00:14.606Z,74.93
2022-10-04T12:01:14.629Z,74.53
2022-10-04T12:02:14.593Z,75.10
2022-10-04T12:03:14.649Z,75.16
2022-10-04T12:04:14.717Z,74.66
2022-10-04T12:05:14.582Z,75.47
2022-10-04T12:06:14.547Z,75.23
2022-10-04T12:07:14.558Z,74.73
2022-10-04T12:08:14.509Z,73.82
2022-10-04T12:09:14.870Z,73.38
2022-10-04T12:10:14.486Z,73.08
2022-10-04T12:11:14.487Z,72.58
2022-10-04T12:12:14.455Z,72.17
2022-10-04T12:13:14.436Z,71.47
2022-10-04T12:14:14.458Z,72.07
2022-10-04T12:15:14.426Z,72.27
2022-10-04T12:16:14.480Z,72.47
2022-10-04T12:17:14.395Z,72.07
2022-10-04T12:18:14.378Z,71.87
2022-10-04T12:19:14.696Z,72.31
2022-10-04T12:20:14.360Z,72.07
2022-10-04T12:21:14.342Z,71.67
2022-10-04T12:22:14.327Z,71.53
2022-10-04T12:23:14.305Z,71.20
2022-10-04T12:24:14.747Z,71.20
2022-10-04T12:25:14.296Z,70.70
2022-10-04T12:26:19.026Z,69.59
2022-10-04T12:27:15.264Z,69.59
2022-10-04T12:28:14.340Z,70.16
2022-10-04T12:29:14.555Z,70.16
2022-10-04T12:30:14.242Z,70.12
2022-10-04T12:31:14.275Z,69.59
2022-10-04T12:32:14.196Z,68.68
2022-10-04T12:33:14.184Z,68.85
2022-10-04T12:34:14.169Z,70.39
2022-10-04T12:35:14.697Z,69.22
2022-10-04T12:36:14.156Z,70.32
2022-10-04T12:37:14.125Z,70.03
2022-10-04T12:38:14.127Z,69.99
2022-10-04T12:39:14.439Z,69.59
2022-10-04T12:40:14.206Z,69.79
2022-10-04T12:41:14.119Z,69.32
2022-10-04T12:42:14.082Z,69.45
2022-10-04T12:43:14.053Z,69.96
2022-10-04T12:44:14.046Z,70.03
2022-10-04T12:45:14.362Z,70.93
2022-10-04T12:46:14.065Z,70.36
2022-10-04T12:47:14.003Z,70.16
2022-10-04T12:48:13.992Z,70.83
2022-10-04T12:49:14.345Z,70.03
2022-10-04T12:50:13.954Z,70.93
2022-10-04T12:51:13.973Z,71.43
2022-10-04T12:52:13.943Z,70.76